| Date | Time | Temp. (oF) | Dew Point (oF) | Rel. Hum. (%) | Press. (in.) | Wind Dir. | Wind Speed (mph) | Hourly Rainfall (in.) |
|
|---|---|---|---|---|---|---|---|---|---|
| 1 | 06/29 | 00:00 | 74 | 66 | 77 | 29.82 | SW | 0 | 0.00 |
| 2 | 06/28 | 23:00 | 76 | 66 | 73 | 29.81 | S | 5 | 0.00 |
| 3 | 06/28 | 22:00 | 79 | 67 | 67 | 29.82 | S | 14 | 0.00 |
| 4 | 06/28 | 21:00 | 82 | 69 | 67 | 29.79 | S | 2 | 0.00 |
| 5 | 06/28 | 20:00 | 85 | 68 | 59 | 29.75 | SSW | 4 | 0.00 |
| 6 | 06/28 | 19:00 | 87 | 68 | 54 | 29.73 | WSW | 5 | 0.00 |
| 7 | 06/28 | 18:00 | 88 | 68 | 53 | 29.73 | SSW | 9 | 0.00 |
| 8 | 06/28 | 17:00 | 88 | 68 | 52 | 29.74 | SW | 10 | 0.00 |
| 9 | 06/28 | 16:00 | 88 | 69 | 55 | 29.77 | SSW | 8 | 0.00 |
| 10 | 06/28 | 15:00 | 88 | 69 | 54 | 29.79 | SSW | 15 | 0.00 |
| 11 | 06/28 | 14:00 | 86 | 69 | 59 | 29.80 | SSW | 5 | 0.00 |
| 12 | 06/28 | 13:00 | 86 | 73 | 67 | 29.81 | S | 7 | 0.00 |
| 13 | 06/28 | 12:00 | 83 | 77 | 84 | 29.84 | S | 4 | 0.03 |
| 14 | 06/28 | 11:00 | 80 | 74 | 84 | 29.85 | SSW | 5 | 0.00 |
| 15 | 06/28 | 10:00 | 81 | 74 | 81 | 29.85 | S | 6 | 0.00 |
| 16 | 06/28 | 09:00 | 76 | 74 | 94 | 29.85 | SSW | 3 | 0.00 |
| 17 | 06/28 | 08:00 | 71 | 71 | 100 | 29.86 | S | 1 | 0.00 |
| 18 | 06/28 | 07:00 | 68 | 68 | 100 | 29.86 | SSE | 0 | 0.00 |
| 19 | 06/28 | 06:00 | 66 | 66 | 100 | 29.85 | SSE | 0 | 0.00 |
| 20 | 06/28 | 05:00 | 66 | 66 | 100 | 29.85 | S | 0 | 0.00 |
| 21 | 06/28 | 04:00 | 67 | 67 | 100 | 29.84 | S | 0 | 0.00 |
| 22 | 06/28 | 03:00 | 68 | 68 | 100 | 29.85 | S | 1 | 0.00 |
| 23 | 06/28 | 02:00 | 68 | 68 | 100 | 29.85 | S | 0 | 0.00 |
| 24 | 06/28 | 01:00 | 69 | 68 | 100 | 29.85 | SW | 2 | 0.00 |